Time;durP1;ratioP1;P1;durP2;ratioP2;P2;SDS_P1;SDS_P2;PMS_P1;PMS_P2;Temp;Humidity;BMP_temperature;BMP_pressure;BME280_temperature;BME280_humidity;BME280_pressure;Samples;Min_cycle;Max_cycle;Signal;HPM_P1;HPM_P2
2024/04/08 00:01:44;;;;;;;16.30;11.13;;;16.30;99.90;;;;;;5082351;28;20028;-76
2024/04/08 00:04:10;;;;;;;12.77;11.15;;;16.30;99.90;;;;;;5081879;28;20052;-76
2024/04/08 00:06:36;;;;;;;13.30;11.10;;;16.30;99.90;;;;;;5083260;28;20030;-76
2024/04/08 00:09:03;;;;;;;13.90;11.65;;;16.30;99.90;;;;;;5082550;28;20372;-77
2024/04/08 00:11:29;;;;;;;22.15;11.98;;;16.30;99.90;;;;;;5065587;28;20059;-76
2024/04/08 00:13:54;;;;;;;14.00;12.27;;;16.20;99.90;;;;;;5064145;28;20052;-76
2024/04/08 00:16:20;;;;;;;14.80;12.27;;;16.20;99.90;;;;;;5083934;28;20063;-76
2024/04/08 00:18:46;;;;;;;16.98;12.25;;;16.20;99.90;;;;;;5080852;28;20028;-76
2024/04/08 00:21:12;;;;;;;16.63;12.20;;;16.20;99.90;;;;;;5079694;28;20017;-76
2024/04/08 00:23:37;;;;;;;17.02;12.25;;;16.20;99.90;;;;;;5062840;28;20412;-76
2024/04/08 00:26:05;;;;;;;13.82;11.80;;;16.20;99.90;;;;;;5084571;28;20369;-76
2024/04/08 00:28:31;;;;;;;15.05;11.25;;;16.20;99.90;;;;;;5062769;28;20157;-76
2024/04/08 00:31:04;;;;;;;18.77;11.95;;;16.20;99.90;;;;;;5084909;28;20127;-76
2024/04/08 00:33:30;;;;;;;14.82;11.23;;;16.20;99.90;;;;;;5081196;28;20416;-76
2024/04/08 00:35:56;;;;;;;17.65;12.75;;;16.20;99.90;;;;;;5084292;28;20062;-76
2024/04/08 00:38:22;;;;;;;17.95;12.57;;;16.20;99.90;;;;;;5062467;28;20060;-76
2024/04/08 00:40:48;;;;;;;18.13;12.20;;;16.20;99.90;;;;;;5080554;28;20048;-76
2024/04/08 00:43:13;;;;;;;16.10;12.27;;;16.20;99.90;;;;;;5084122;28;20020;-76
2024/04/08 00:45:41;;;;;;;16.83;12.48;;;16.20;99.90;;;;;;5080861;28;20073;-76
2024/04/08 00:48:08;;;;;;;17.23;12.20;;;16.10;99.90;;;;;;5078889;28;20020;-76
2024/04/08 00:50:37;;;;;;;14.63;12.07;;;16.10;99.90;;;;;;5065553;28;20158;-76
2024/04/08 00:53:03;;;;;;;15.48;11.90;;;16.10;99.90;;;;;;5062553;28;20031;-76
2024/04/08 00:55:30;;;;;;;18.90;11.65;;;16.00;99.90;;;;;;5083678;28;20169;-76
2024/04/08 00:57:56;;;;;;;18.45;12.18;;;16.00;99.90;;;;;;5080506;28;20048;-76
2024/04/08 01:00:22;;;;;;;16.05;12.15;;;16.00;99.90;;;;;;5065265;28;20027;-76
2024/04/08 01:02:48;;;;;;;14.07;11.73;;;16.00;99.90;;;;;;5081101;28;20028;-76
2024/04/08 01:05:15;;;;;;;16.35;11.27;;;16.00;99.90;;;;;;5082597;28;20078;-76
2024/04/08 01:07:45;;;;;;;15.18;12.00;;;16.00;99.90;;;;;;5063236;28;20027;-76
2024/04/08 01:10:11;;;;;;;17.58;12.45;;;16.00;99.90;;;;;;5084778;28;20016;-76
2024/04/08 01:12:40;;;;;;;16.08;11.73;;;15.90;99.90;;;;;;5063051;28;20027;-76
2024/04/08 01:15:06;;;;;;;15.25;12.35;;;15.90;99.90;;;;;;5082927;28;20028;-76
2024/04/08 01:17:32;;;;;;;17.23;13.02;;;15.90;99.90;;;;;;5087433;28;20016;-76
2024/04/08 01:19:58;;;;;;;19.35;12.63;;;15.90;99.90;;;;;;5080999;28;20027;-77
2024/04/08 01:22:23;;;;;;;18.38;12.23;;;15.90;99.90;;;;;;5082044;28;20044;-77
2024/04/08 01:24:49;;;;;;;15.40;11.68;;;15.80;99.90;;;;;;5081745;28;20576;-76
2024/04/08 01:27:15;;;;;;;19.58;13.13;;;15.80;99.90;;;;;;5063354;28;20069;-76
2024/04/08 01:29:41;;;;;;;17.35;12.32;;;15.80;99.90;;;;;;5082090;28;20051;-76
2024/04/08 01:32:06;;;;;;;15.65;12.25;;;15.80;99.90;;;;;;5080914;28;20373;-76
2024/04/08 01:34:32;;;;;;;16.63;11.27;;;15.80;99.90;;;;;;5077099;28;20361;-76
2024/04/08 01:36:58;;;;;;;19.35;12.23;;;15.90;99.90;;;;;;5082675;28;20039;-77
2024/04/08 01:39:24;;;;;;;15.05;11.55;;;15.80;99.90;;;;;;5079997;28;20020;-77
2024/04/08 01:41:50;;;;;;;21.42;13.30;;;15.80;99.90;;;;;;5083135;28;20016;-76
2024/04/08 01:44:15;;;;;;;24.15;12.70;;;15.80;99.90;;;;;;5079486;28;20021;-76
2024/04/08 01:46:41;;;;;;;17.77;12.32;;;15.80;99.90;;;;;;5085349;28;20455;-76
2024/04/08 01:49:07;;;;;;;15.05;11.07;;;15.80;99.90;;;;;;5079280;28;20025;-77
2024/04/08 01:51:32;;;;;;;15.02;11.30;;;15.80;99.90;;;;;;5082843;28;20020;-76
2024/04/08 01:53:58;;;;;;;14.88;10.70;;;15.80;99.90;;;;;;5084282;28;20468;-77
2024/04/08 01:56:23;;;;;;;12.60;11.05;;;15.70;99.90;;;;;;5079112;28;20028;-76
2024/04/08 01:58:49;;;;;;;11.05;9.95;;;15.70;99.90;;;;;;5080288;28;20048;-76
2024/04/08 02:01:15;;;;;;;12.82;10.20;;;15.70;99.90;;;;;;5081721;28;20021;-76
2024/04/08 02:03:41;;;;;;;10.30;8.65;;;15.70;99.90;;;;;;5081325;28;20376;-77
2024/04/08 02:06:06;;;;;;;16.80;9.48;;;15.80;99.90;;;;;;5081197;28;20384;-76
2024/04/08 02:08:32;;;;;;;14.02;9.75;;;15.70;99.90;;;;;;5063284;28;20064;-77
2024/04/08 02:10:58;;;;;;;9.80;8.85;;;15.70;99.90;;;;;;5080490;28;20074;-76
2024/04/08 02:13:23;;;;;;;11.82;8.68;;;15.80;99.90;;;;;;5081940;28;20498;-77
2024/04/08 02:15:49;;;;;;;12.25;8.45;;;15.80;99.90;;;;;;5080038;28;20396;-76
2024/04/08 02:18:15;;;;;;;8.80;8.00;;;15.90;99.90;;;;;;5061741;28;20033;-76
2024/04/08 02:20:41;;;;;;;9.98;7.75;;;15.90;99.90;;;;;;5083450;28;20031;-76
2024/04/08 02:23:06;;;;;;;13.55;8.50;;;15.90;97.90;;;;;;5083408;28;20049;-76
2024/04/08 02:25:43;;;;;;;9.15;7.65;;;15.90;95.10;;;;;;5087059;28;20071;-76
2024/04/08 02:28:09;;;;;;;7.80;6.82;;;15.80;96.20;;;;;;5084342;28;20032;-76
2024/04/08 02:30:39;;;;;;;11.25;7.35;;;15.80;93.90;;;;;;5085866;28;20077;-76
2024/04/08 02:33:08;;;;;;;8.27;7.45;;;15.80;94.00;;;;;;5082959;28;20031;-76
2024/04/08 02:35:37;;;;;;;9.20;7.07;;;15.70;95.50;;;;;;5085522;28;20168;-76
2024/04/08 02:38:06;;;;;;;7.40;6.75;;;15.70;95.60;;;;;;5084481;28;20082;-76
2024/04/08 02:40:32;;;;;;;10.77;7.40;;;15.70;93.60;;;;;;5066639;28;20452;-76
2024/04/08 02:42:59;;;;;;;6.93;5.95;;;15.70;91.20;;;;;;5066498;28;20111;-76
2024/04/08 02:45:25;;;;;;;6.32;5.72;;;15.70;90.00;;;;;;5066898;28;20090;-76
2024/04/08 02:47:50;;;;;;;8.23;6.70;;;15.70;82.60;;;;;;5086326;28;20016;-76
2024/04/08 02:50:16;;;;;;;10.65;5.82;;;15.70;76.20;;;;;;5086945;28;20034;-76
2024/04/08 02:52:42;;;;;;;6.25;5.35;;;15.80;71.70;;;;;;5082808;28;20417;-76
2024/04/08 02:55:08;;;;;;;7.85;5.55;;;15.80;70.20;;;;;;5082774;28;20016;-76
2024/04/08 02:57:33;;;;;;;6.60;5.35;;;15.80;65.80;;;;;;5081090;28;20055;-76
2024/04/08 03:00:02;;;;;;;8.90;5.57;;;15.80;61.60;;;;;;5082479;28;20029;-76
2024/04/08 03:02:30;;;;;;;8.35;5.10;;;15.80;61.00;;;;;;5086065;28;20113;-76
2024/04/08 03:04:59;;;;;;;7.70;5.10;;;15.80;57.30;;;;;;5065943;28;20086;-76
2024/04/08 03:07:28;;;;;;;7.57;5.07;;;15.80;53.70;;;;;;5067218;28;20023;-76
2024/04/08 03:09:54;;;;;;;7.18;5.10;;;15.70;57.00;;;;;;5065120;28;20487;-76
2024/04/08 03:12:20;;;;;;;8.27;4.95;;;15.70;56.70;;;;;;5085564;28;20074;-76
2024/04/08 03:14:46;;;;;;;5.40;4.47;;;15.70;58.30;;;;;;5064441;28;20384;-76
2024/04/08 03:17:11;;;;;;;7.10;4.25;;;15.60;61.50;;;;;;5085349;28;20513;-76
2024/04/08 03:19:37;;;;;;;8.93;4.88;;;15.50;69.00;;;;;;5085994;28;20036;-76
2024/04/08 03:22:03;;;;;;;6.93;5.00;;;15.50;74.30;;;;;;5067927;28;20016;-76
2024/04/08 03:24:29;;;;;;;8.00;4.90;;;15.40;74.20;;;;;;5082432;28;20597;-76
2024/04/08 03:26:55;;;;;;;5.15;4.47;;;15.40;62.10;;;;;;5085053;28;20032;-76
2024/04/08 03:29:20;;;;;;;8.98;4.38;;;15.50;62.00;;;;;;5064695;28;20028;-76
2024/04/08 03:31:47;;;;;;;4.85;3.67;;;15.50;46.80;;;;;;5084256;28;20024;-76
2024/04/08 03:34:13;;;;;;;8.43;4.40;;;15.50;42.50;;;;;;5082595;28;20028;-76
2024/04/08 03:36:38;;;;;;;4.18;3.78;;;15.50;37.40;;;;;;5084310;28;20023;-76
2024/04/08 03:39:04;;;;;;;9.73;4.45;;;15.50;39.70;;;;;;5080044;28;20078;-76
2024/04/08 03:41:30;;;;;;;5.40;4.18;;;15.50;27.00;;;;;;5083568;28;20027;-76
2024/04/08 03:43:56;;;;;;;8.73;3.72;;;15.50;31.00;;;;;;5084382;28;20024;-76
2024/04/08 03:46:22;;;;;;;4.57;4.18;;;15.40;32.40;;;;;;5085364;28;20479;-76
2024/04/08 03:48:48;;;;;;;4.18;3.65;;;15.50;30.40;;;;;;5087803;28;20077;-76
2024/04/08 03:51:15;;;;;;;4.95;3.70;;;15.40;29.80;;;;;;5064351;28;20024;-76
2024/04/08 03:53:41;;;;;;;5.18;3.95;;;15.40;38.20;;;;;;5067344;28;20040;-76
2024/04/08 03:56:11;;;;;;;5.78;4.00;;;15.40;35.50;;;;;;5084599;28;20027;-76
2024/04/08 03:58:41;;;;;;;3.90;3.60;;;15.40;30.40;;;;;;5085400;28;20037;-76
2024/04/08 04:01:09;;;;;;;4.20;3.50;;;15.40;21.60;;;;;;5083830;28;20031;-76
2024/04/08 04:03:35;;;;;;;4.75;3.67;;;15.40;19.30;;;;;;5064821;28;20048;-76
2024/04/08 04:06:01;;;;;;;5.28;3.40;;;15.40;27.40;;;;;;5083705;28;20118;-76
2024/04/08 04:08:27;;;;;;;4.40;3.47;;;15.40;13.50;;;;;;5082224;28;20539;-76
2024/04/08 04:10:52;;;;;;;3.55;3.25;;;15.40;1.00;;;;;;5084104;28;20024;-76
2024/04/08 04:13:18;;;;;;;4.63;3.88;;;15.40;1.00;;;;;;5080518;28;20028;-76
2024/04/08 04:15:44;;;;;;;4.35;3.70;;;15.40;1.00;;;;;;5066573;28;20024;-76
2024/04/08 04:18:10;;;;;;;4.47;3.38;;;15.50;1.00;;;;;;5059960;28;20029;-76
2024/04/08 04:20:40;;;;;;;6.40;3.72;;;15.40;1.00;;;;;;5084734;28;20289;-76
2024/04/08 04:23:07;;;;;;;6.97;3.53;;;15.40;10.00;;;;;;5081117;28;20480;-76
2024/04/08 04:25:33;;;;;;;6.05;3.63;;;15.40;11.30;;;;;;5084535;28;20090;-76
2024/04/08 04:28:00;;;;;;;3.53;3.22;;;15.40;20.90;;;;;;5080818;28;20263;-76
2024/04/08 04:30:26;;;;;;;4.55;3.38;;;15.30;18.50;;;;;;5066686;28;20028;-76
2024/04/08 04:32:52;;;;;;;5.72;3.70;;;15.30;14.80;;;;;;5080766;28;20025;-76
2024/04/08 04:35:18;;;;;;;6.18;4.07;;;15.30;20.60;;;;;;5084314;28;20013;-76
2024/04/08 04:37:44;;;;;;;5.53;3.70;;;15.30;25.10;;;;;;5080073;28;20028;-76
2024/04/08 04:40:10;;;;;;;5.72;4.03;;;15.30;20.10;;;;;;5081301;28;20471;-76
2024/04/08 04:42:35;;;;;;;5.07;3.47;;;15.20;11.70;;;;;;5080679;28;20024;-76
2024/04/08 04:45:02;;;;;;;5.43;3.47;;;15.30;14.60;;;;;;5065146;28;20395;-76
2024/04/08 04:47:28;;;;;;;3.10;2.80;;;15.20;18.80;;;;;;5078525;28;20020;-76
2024/04/08 04:49:54;;;;;;;5.13;3.03;;;15.20;18.90;;;;;;5062431;28;20031;-76
2024/04/08 04:52:20;;;;;;;5.80;3.75;;;15.20;12.80;;;;;;5082419;28;20020;-76
2024/04/08 04:54:45;;;;;;;7.97;3.78;;;15.20;3.20;;;;;;5082367;28;20024;-76
2024/04/08 04:57:11;;;;;;;3.53;3.08;;;15.20;9.40;;;;;;5081281;28;20029;-76
2024/04/08 04:59:37;;;;;;;5.00;3.35;;;15.20;8.70;;;;;;5082835;28;20020;-76
2024/04/08 05:02:02;;;;;;;4.93;3.63;;;15.10;7.30;;;;;;5063308;28;20025;-76
2024/04/08 05:04:28;;;;;;;3.35;2.90;;;15.10;11.00;;;;;;5083155;28;20036;-76
2024/04/08 05:06:54;;;;;;;4.80;3.90;;;15.10;8.70;;;;;;5084101;28;20069;-76
2024/04/08 05:09:20;;;;;;;4.95;3.55;;;15.10;10.00;;;;;;5087420;28;20164;-76
2024/04/08 05:11:46;;;;;;;5.47;3.15;;;15.10;11.40;;;;;;5090552;28;20027;-76
2024/04/08 05:14:12;;;;;;;4.25;3.45;;;15.10;13.50;;;;;;5073179;28;20028;-76
2024/04/08 05:16:37;;;;;;;3.53;3.22;;;15.10;9.30;;;;;;5073107;28;20411;-76
2024/04/08 05:19:03;;;;;;;4.10;3.00;;;15.10;10.90;;;;;;5072938;28;20020;-76
2024/04/08 05:21:29;;;;;;;4.10;3.83;;;15.10;3.30;;;;;;5104030;28;20085;-76
2024/04/08 05:23:55;;;;;;;4.85;3.38;;;15.10;1.00;;;;;;5091224;28;20012;-76
2024/04/08 05:26:20;;;;;;;3.60;2.70;;;15.20;1.00;;;;;;5072847;28;21438;-76
2024/04/08 05:28:46;;;;;;;5.45;2.95;;;15.20;1.00;;;;;;5089791;28;20009;-76
2024/04/08 05:31:12;;;;;;;4.18;3.15;;;15.20;1.00;;;;;;5091107;28;20387;-76
2024/04/08 05:33:38;;;;;;;5.90;3.50;;;15.30;1.00;;;;;;5063466;28;20111;-76
2024/04/08 05:36:04;;;;;;;4.97;3.65;;;15.20;1.00;;;;;;5063299;28;20078;-76
2024/04/08 05:38:30;;;;;;;6.82;3.65;;;15.30;1.00;;;;;;5063553;28;20028;-76
2024/04/08 05:41:02;;;;;;;5.85;3.20;;;15.40;1.00;;;;;;5083519;28;20020;-76
2024/04/08 05:43:28;;;;;;;6.43;3.67;;;15.40;1.00;;;;;;5077722;28;20038;-76
2024/04/08 05:45:54;;;;;;;4.90;3.40;;;15.40;1.00;;;;;;5081499;28;20020;-76
2024/04/08 05:48:20;;;;;;;9.27;3.28;;;15.40;1.00;;;;;;5062230;28;20032;-76
2024/04/08 05:50:47;;;;;;;4.30;2.85;;;15.50;1.00;;;;;;5080869;28;20021;-76
2024/04/08 05:53:13;;;;;;;3.58;2.92;;;15.50;1.00;;;;;;5063662;28;20479;-76
2024/04/08 05:55:39;;;;;;;6.15;2.92;;;15.60;1.00;;;;;;5080199;28;20050;-76
2024/04/08 05:58:05;;;;;;;6.20;3.25;;;15.70;1.00;;;;;;5085421;28;20055;-76
2024/04/08 06:00:31;;;;;;;7.90;3.63;;;15.70;1.00;;;;;;5078964;28;20098;-76
2024/04/08 06:02:57;;;;;;;5.43;3.50;;;15.80;1.00;;;;;;5072552;28;20154;-76
2024/04/08 06:05:25;;;;;;;3.30;3.10;;;15.80;1.00;;;;;;5072605;28;20622;-76
2024/04/08 06:07:51;;;;;;;6.60;3.38;;;15.90;1.00;;;;;;5071405;28;20074;-76
2024/04/08 06:10:18;;;;;;;4.90;2.80;;;15.90;1.00;;;;;;5072639;28;20029;-76
2024/04/08 06:12:44;;;;;;;3.22;2.92;;;16.00;1.00;;;;;;5072408;28;20029;-76
2024/04/08 06:15:10;;;;;;;3.35;3.05;;;16.10;1.00;;;;;;5080379;28;20038;-76
2024/04/08 06:17:36;;;;;;;5.85;3.47;;;16.20;1.00;;;;;;5078343;28;20462;-76
2024/04/08 06:20:03;;;;;;;7.30;3.33;;;16.20;1.00;;;;;;5072227;28;20104;-76
2024/04/08 06:22:28;;;;;;;6.13;3.08;;;16.30;1.00;;;;;;5092216;28;20021;-76
2024/04/08 06:24:54;;;;;;;4.55;2.95;;;16.40;1.00;;;;;;5063188;28;20024;-76
2024/04/08 06:27:20;;;;;;;6.25;3.10;;;16.40;1.00;;;;;;5072436;28;20440;-76
2024/04/08 06:29:45;;;;;;;3.95;3.08;;;16.50;1.00;;;;;;5054507;28;20024;-76
2024/04/08 06:32:11;;;;;;;6.63;3.22;;;16.50;1.00;;;;;;5082964;28;20023;-76
2024/04/08 06:34:37;;;;;;;9.35;3.30;;;16.60;1.00;;;;;;5088505;28;20433;-76
2024/04/08 06:37:03;;;;;;;3.50;3.20;;;16.60;1.00;;;;;;5092497;28;20028;-76
2024/04/08 06:39:28;;;;;;;6.80;3.67;;;16.70;1.00;;;;;;5074441;28;20526;-76
2024/04/08 06:41:54;;;;;;;3.83;3.20;;;16.70;1.00;;;;;;5055526;28;20075;-76
2024/04/08 06:44:20;;;;;;;5.85;2.90;;;16.70;1.00;;;;;;5082771;28;20391;-76
2024/04/08 06:46:45;;;;;;;6.35;3.45;;;16.70;1.00;;;;;;5053951;28;20028;-76
2024/04/08 06:49:11;;;;;;;15.98;3.85;;;16.70;1.00;;;;;;5083657;28;20505;-76
2024/04/08 06:51:37;;;;;;;7.10;3.17;;;16.70;1.00;;;;;;5087814;28;20028;-76
2024/04/08 06:54:02;;;;;;;9.90;3.55;;;16.70;1.00;;;;;;5083442;28;20029;-76
2024/04/08 06:56:28;;;;;;;5.88;3.40;;;16.70;6.80;;;;;;5075107;28;20032;-76
2024/04/08 06:58:54;;;;;;;7.28;3.45;;;16.70;30.10;;;;;;5080952;28;20102;-76
2024/04/08 07:01:20;;;;;;;9.43;4.30;;;16.70;52.10;;;;;;5080330;28;20024;-76
2024/04/08 07:03:47;;;;;;;7.05;3.65;;;16.70;68.80;;;;;;5078248;28;20031;-76
2024/04/08 07:06:13;;;;;;;18.98;4.15;;;16.70;53.00;;;;;;5087995;28;20123;-76
2024/04/08 07:08:38;;;;;;;7.90;3.67;;;16.70;42.70;;;;;;5088094;28;20139;-76
2024/04/08 07:11:04;;;;;;;11.65;3.88;;;16.70;43.00;;;;;;5077952;28;20042;-76
2024/04/08 07:13:30;;;;;;;8.73;4.35;;;16.70;66.00;;;;;;5062362;28;20028;-76
2024/04/08 07:15:56;;;;;;;14.82;5.20;;;16.70;79.40;;;;;;5078037;28;20093;-76
2024/04/08 07:18:28;;;;;;;8.32;4.38;;;16.60;81.30;;;;;;5060262;28;20066;-76
2024/04/08 07:20:53;;;;;;;6.57;4.63;;;16.60;69.10;;;;;;5085126;28;20102;-76
2024/04/08 07:23:19;;;;;;;9.27;3.80;;;16.60;68.10;;;;;;5082136;28;20664;-76
2024/04/08 07:25:45;;;;;;;9.98;5.15;;;16.70;82.50;;;;;;5066022;28;20111;-76
2024/04/08 07:28:11;;;;;;;8.45;5.05;;;16.70;79.00;;;;;;5084444;28;20020;-76
2024/04/08 07:30:38;;;;;;;14.70;9.13;;;16.80;95.30;;;;;;5076244;28;20028;-76
2024/04/08 07:33:04;;;;;;;15.77;11.38;;;16.90;82.00;;;;;;5090187;28;20116;-76
2024/04/08 07:35:31;;;;;;;17.02;10.30;;;16.90;58.10;;;;;;5062435;28;20567;-76
2024/04/08 07:37:57;;;;;;;14.88;9.95;;;16.90;64.20;;;;;;5083482;28;20016;-76
2024/04/08 07:40:22;;;;;;;12.23;8.85;;;17.00;88.00;;;;;;5077670;28;20119;-76
2024/04/08 07:42:48;;;;;;;14.57;8.15;;;17.00;88.90;;;;;;5079436;28;20032;-76
2024/04/08 07:45:14;;;;;;;11.68;8.65;;;17.00;91.10;;;;;;5074285;28;20536;-76
2024/04/08 07:47:40;;;;;;;14.10;7.70;;;17.10;95.00;;;;;;5070456;28;20077;-76
2024/04/08 07:50:07;;;;;;;9.95;7.32;;;17.20;90.20;;;;;;5086307;28;20395;-76
2024/04/08 07:52:37;;;;;;;10.68;6.95;;;17.20;67.30;;;;;;5093998;28;20039;-76
2024/04/08 07:55:03;;;;;;;11.60;8.35;;;17.30;73.00;;;;;;5081435;28;20020;-76
2024/04/08 07:57:29;;;;;;;18.30;10.40;;;17.40;75.80;;;;;;5085305;28;20396;-76
2024/04/08 07:59:55;;;;;;;19.65;13.20;;;17.40;67.90;;;;;;5085275;28;20027;-77
2024/04/08 08:02:23;;;;;;;21.00;15.52;;;17.40;74.80;;;;;;5086572;28;20028;-77
2024/04/08 08:04:53;;;;;;;22.42;15.50;;;17.50;95.40;;;;;;5081638;28;20027;-77
2024/04/08 08:07:21;;;;;;;19.15;15.00;;;17.60;99.50;;;;;;5085597;28;20106;-77
2024/04/08 08:09:50;;;;;;;21.60;17.17;;;17.60;94.30;;;;;;5081623;28;20040;-77
2024/04/08 08:12:17;;;;;;;27.20;17.52;;;17.70;89.00;;;;;;5066437;28;20476;-77
2024/04/08 08:14:43;;;;;;;25.65;17.33;;;17.80;98.70;;;;;;5063835;28;20032;-77
2024/04/08 08:17:09;;;;;;;24.38;18.92;;;17.80;99.10;;;;;;5087882;28;20023;-77
2024/04/08 08:19:35;;;;;;;33.60;21.80;;;17.80;99.90;;;;;;5066935;28;20028;-77
2024/04/08 08:22:04;;;;;;;34.58;21.58;;;17.90;96.20;;;;;;5081310;28;20013;-77
2024/04/08 08:24:33;;;;;;;37.28;22.15;;;18.00;96.30;;;;;;5081180;28;20055;-77
2024/04/08 08:26:58;;;;;;;35.20;24.80;;;18.00;96.90;;;;;;5081026;28;20025;-77
2024/04/08 08:29:26;;;;;;;44.53;27.48;;;18.00;99.90;;;;;;5081112;28;20078;-77
2024/04/08 08:31:51;;;;;;;41.65;26.33;;;18.10;99.90;;;;;;5081022;28;20016;-77
2024/04/08 08:34:17;;;;;;;39.15;26.23;;;18.20;99.90;;;;;;5084624;28;20139;-77
2024/04/08 08:36:43;;;;;;;37.90;26.15;;;18.20;99.90;;;;;;5080966;28;20025;-77
2024/04/08 08:39:09;;;;;;;34.05;24.60;;;18.30;99.90;;;;;;5084018;28;20024;-77
2024/04/08 08:41:39;;;;;;;30.92;24.00;;;18.50;94.10;;;;;;5081347;28;20392;-77
2024/04/08 08:44:06;;;;;;;39.15;25.15;;;18.50;97.40;;;;;;5084185;28;20028;-77
2024/04/08 08:46:32;;;;;;;37.70;24.90;;;18.60;77.30;;;;;;5063002;28;20023;-77
2024/04/08 08:49:01;;;;;;;36.35;24.73;;;18.70;91.00;;;;;;5061635;28;20032;-77
2024/04/08 08:51:27;;;;;;;34.45;24.98;;;18.80;89.00;;;;;;5083857;28;20026;-77
2024/04/08 08:53:56;;;;;;;34.05;24.55;;;18.80;77.80;;;;;;5081265;28;20021;-77
2024/04/08 08:56:23;;;;;;;32.00;22.80;;;18.70;91.00;;;;;;5083697;28;20089;-77
2024/04/08 08:58:55;;;;;;;37.13;24.92;;;18.70;91.20;;;;;;5080843;28;20044;-77
2024/04/08 09:01:21;;;;;;;43.78;24.20;;;18.70;98.30;;;;;;5066327;28;20114;-77
2024/04/08 09:03:47;;;;;;;30.88;23.27;;;18.90;67.20;;;;;;5062415;28;20458;-77
2024/04/08 09:06:14;;;;;;;41.92;25.00;;;19.00;84.30;;;;;;5066752;28;20027;-77
2024/04/08 09:08:40;;;;;;;40.60;26.15;;;19.10;86.20;;;;;;5080552;28;20036;-78
2024/04/08 09:11:07;;;;;;;35.90;24.13;;;19.10;93.60;;;;;;5082101;28;20024;-77
2024/04/08 09:13:36;;;;;;;31.17;23.92;;;19.20;99.90;;;;;;5062766;28;20025;-77
2024/04/08 09:16:02;;;;;;;33.17;22.38;;;19.30;93.70;;;;;;5083372;28;20037;-77
2024/04/08 09:18:27;;;;;;;29.52;21.80;;;19.40;99.90;;;;;;5082672;28;20397;-77
2024/04/08 09:20:53;;;;;;;32.65;20.88;;;19.40;90.30;;;;;;5062997;28;20059;-78
2024/04/08 09:23:19;;;;;;;29.75;19.10;;;19.50;98.00;;;;;;5082519;28;20077;-77
2024/04/08 09:25:45;;;;;;;33.60;19.92;;;19.50;82.10;;;;;;5081486;28;20016;-77
2024/04/08 09:28:11;;;;;;;27.27;20.52;;;19.60;49.80;;;;;;5058678;28;20032;-78
2024/04/08 09:30:38;;;;;;;26.75;18.80;;;19.70;59.50;;;;;;5063010;28;20017;-77
2024/04/08 09:33:08;;;;;;;26.67;19.83;;;19.70;51.30;;;;;;5063664;28;20503;-77
2024/04/08 09:35:39;;;;;;;29.35;20.00;;;19.80;42.20;;;;;;5063329;28;20008;-77
2024/04/08 09:38:08;;;;;;;35.80;21.20;;;19.80;49.70;;;;;;5077728;28;20459;-77
2024/04/08 09:40:35;;;;;;;32.13;21.50;;;19.90;27.40;;;;;;5082642;28;20479;-77
2024/04/08 09:43:03;;;;;;;29.65;20.85;;;19.90;69.80;;;;;;5080723;28;20119;-77
2024/04/08 09:45:29;;;;;;;28.60;22.05;;;20.00;59.80;;;;;;5082598;28;20067;-77
2024/04/08 09:47:55;;;;;;;29.42;20.98;;;20.20;1.00;;;;;;5080663;28;20496;-77
2024/04/08 09:50:23;;;;;;;36.35;21.02;;;20.10;1.00;;;;;;5081820;28;20115;-77
2024/04/08 09:52:49;;;;;;;36.85;22.13;;;20.10;8.20;;;;;;5062772;28;20022;-77
2024/04/08 09:55:15;;;;;;;34.13;22.70;;;20.10;15.70;;;;;;5063677;28;20036;-77
2024/04/08 09:57:44;;;;;;;33.97;21.80;;;20.20;5.70;;;;;;5081122;28;20418;-77
2024/04/08 10:00:15;;;;;;;33.22;21.48;;;20.30;23.30;;;;;;5084343;28;20028;-77
2024/04/08 10:04:22;;;;;;;34.67;23.33;;;20.30;23.60;;;;;;5454868;25;20446;-79
2024/04/08 10:06:49;;;;;;;34.15;22.25;;;20.40;5.50;;;;;;5442376;26;20445;-78
2024/04/08 10:09:16;;;;;;;37.25;23.20;;;20.50;28.00;;;;;;5454724;26;19994;-79
2024/04/08 10:11:53;;;;;;;23.92;20.33;;;20.50;31.80;;;;;;5448638;26;20332;-78
2024/04/08 10:14:23;;;;;;;38.28;21.23;;;20.60;1.00;;;;;;5452491;26;19998;-78
2024/04/08 10:16:50;;;;;;;32.63;21.80;;;20.70;1.00;;;;;;5453440;26;19998;-78
2024/04/08 10:19:24;;;;;;;33.10;22.73;;;20.90;1.00;;;;;;5451080;26;20002;-78
2024/04/08 10:21:53;;;;;;;36.13;21.38;;;20.90;1.00;;;;;;5450273;26;19998;-78
2024/04/08 10:24:31;;;;;;;32.92;22.08;;;20.90;1.00;;;;;;5453002;26;19994;-78
2024/04/08 10:27:11;;;;;;;30.58;20.05;;;21.00;14.10;;;;;;5442102;26;19996;-78
2024/04/08 10:29:39;;;;;;;33.20;21.05;;;21.00;1.00;;;;;;5449195;26;19990;-78
2024/04/08 10:32:08;;;;;;;36.80;23.33;;;21.30;1.00;;;;;;5449363;26;20398;-78
2024/04/08 10:34:34;;;;;;;37.13;21.35;;;21.30;1.00;;;;;;5451026;26;20006;-78
2024/04/08 10:37:00;;;;;;;30.63;19.20;;;21.30;1.00;;;;;;5451329;26;20457;-78
2024/04/08 10:39:26;;;;;;;30.95;20.38;;;21.50;1.00;;;;;;5449542;26;20052;-78
2024/04/08 10:41:58;;;;;;;31.15;21.48;;;21.50;1.00;;;;;;5450567;26;19996;-79
2024/04/08 10:44:31;;;;;;;26.88;20.17;;;21.70;1.00;;;;;;5450749;26;20006;-79
2024/04/08 10:46:57;;;;;;;30.88;20.13;;;21.70;1.00;;;;;;5453138;26;19995;-78
2024/04/08 10:49:23;;;;;;;30.10;20.45;;;21.80;1.00;;;;;;5452702;26;19995;-78
2024/04/08 10:51:50;;;;;;;29.45;21.48;;;22.00;1.00;;;;;;5450030;26;20067;-78
2024/04/08 10:54:17;;;;;;;25.70;19.77;;;22.10;1.00;;;;;;5452140;26;20228;-78
2024/04/08 10:56:43;;;;;;;22.73;17.50;;;22.10;1.00;;;;;;5449925;26;19994;-78
2024/04/08 10:59:09;;;;;;;26.88;17.10;;;22.20;99.90;;;;;;5451832;26;19999;-78
2024/04/08 11:01:35;;;;;;;21.75;17.83;;;22.30;99.90;;;;;;5443518;26;20460;-78
2024/04/08 11:04:00;;;;;;;24.88;18.80;;;22.30;99.90;;;;;;5449940;26;20111;-78
2024/04/08 11:06:26;;;;;;;26.95;17.52;;;22.40;99.90;;;;;;5449629;26;20071;-78
2024/04/08 11:08:52;;;;;;;25.83;17.65;;;22.60;99.90;;;;;;5448283;26;20349;-78
2024/04/08 11:11:17;;;;;;;28.45;17.73;;;22.80;99.90;;;;;;5450601;26;20016;-78
2024/04/08 11:13:46;;;;;;;29.20;19.92;;;22.90;99.90;;;;;;5444374;26;20429;-78
2024/04/08 11:16:11;;;;;;;27.60;18.35;;;22.80;1.00;;;;;;5436714;26;20006;-78
2024/04/08 11:18:38;;;;;;;25.30;18.60;;;22.70;99.90;;;;;;5431044;26;20045;-78
2024/04/08 11:21:04;;;;;;;28.80;19.92;;;22.70;99.90;;;;;;5436246;26;20345;-78
2024/04/08 11:23:30;;;;;;;32.22;19.48;;;22.70;99.90;;;;;;5431990;26;20011;-78
2024/04/08 11:25:56;;;;;;;28.15;20.58;;;22.90;99.90;;;;;;5429650;26;20077;-78
2024/04/08 11:28:25;;;;;;;26.30;20.20;;;23.00;99.90;;;;;;5416685;26;20003;-78
2024/04/08 11:30:53;;;;;;;28.00;20.42;;;23.00;99.90;;;;;;5425115;26;20069;-79
2024/04/08 11:33:18;;;;;;;28.52;20.75;;;23.00;99.90;;;;;;5417182;26;20008;-78
2024/04/08 11:35:44;;;;;;;33.42;22.13;;;23.10;99.90;;;;;;5416910;26;20001;-78
2024/04/08 11:38:15;;;;;;;32.92;21.20;;;23.00;99.90;;;;;;5423959;26;20456;-78
2024/04/08 11:40:41;;;;;;;31.77;21.55;;;23.00;99.90;;;;;;5419918;26;20084;-78
2024/04/08 11:43:06;;;;;;;34.40;21.13;;;23.00;99.90;;;;;;5416728;26;20389;-78
2024/04/08 11:45:32;;;;;;;28.30;21.23;;;23.00;99.90;;;;;;5435531;26;20005;-78
2024/04/08 11:48:01;;;;;;;31.85;23.02;;;23.10;99.90;;;;;;5430780;26;20002;-78
2024/04/08 11:50:27;;;;;;;25.10;19.88;;;23.10;99.90;;;;;;5429757;26;20007;-78
2024/04/08 11:52:53;;;;;;;32.88;21.98;;;23.20;99.90;;;;;;5431595;26;20374;-78
2024/04/08 11:55:18;;;;;;;32.35;21.42;;;23.40;99.90;;;;;;5434884;26;19995;-78
2024/04/08 11:57:44;;;;;;;25.13;20.20;;;23.50;99.90;;;;;;5432830;26;20006;-78
2024/04/08 12:00:15;;;;;;;28.92;20.15;;;23.50;99.90;;;;;;5435782;26;20399;-78
2024/04/08 12:02:41;;;;;;;28.83;21.52;;;23.70;99.90;;;;;;5432418;26;20009;-78
2024/04/08 12:05:07;;;;;;;30.25;21.50;;;23.90;27.80;;;;;;5433127;26;20341;-78
2024/04/08 12:07:36;;;;;;;28.80;21.35;;;23.90;1.00;;;;;;5438401;26;20007;-78
2024/04/08 12:10:03;;;;;;;34.33;22.45;;;23.90;99.90;;;;;;5429423;26;20000;-78
2024/04/08 12:12:29;;;;;;;26.95;20.80;;;24.10;99.90;;;;;;5433221;26;19998;-78
2024/04/08 12:14:55;;;;;;;28.15;21.73;;;24.20;99.90;;;;;;5433312;26;20010;-78
2024/04/08 12:17:21;;;;;;;34.20;22.63;;;24.20;42.30;;;;;;5430684;26;20327;-78
2024/04/08 12:19:48;;;;;;;32.13;23.10;;;24.20;65.20;;;;;;5432860;26;20260;-78
2024/04/08 12:22:14;;;;;;;33.97;23.95;;;24.10;13.50;;;;;;5432034;26;20026;-78
2024/04/08 12:24:39;;;;;;;32.42;24.55;;;24.10;98.00;;;;;;5433910;26;19999;-78
2024/04/08 12:27:07;;;;;;;29.33;22.73;;;24.10;90.20;;;;;;5434793;26;20002;-77
2024/04/08 12:29:32;;;;;;;31.42;24.25;;;24.20;99.90;;;;;;5431555;26;20006;-78
2024/04/08 12:31:58;;;;;;;30.95;25.27;;;24.30;99.90;;;;;;5435437;26;19998;-78
2024/04/08 12:34:24;;;;;;;33.97;26.25;;;24.40;99.90;;;;;;5438423;26;20037;-78
2024/04/08 12:36:50;;;;;;;37.70;25.25;;;24.30;99.90;;;;;;5430360;26;20000;-78